createdAt,value
2023-05-19T11:01:37.212Z,9.18
2023-05-19T11:04:12.349Z,3.65
2023-05-19T11:06:40.350Z,3.13
2023-05-19T11:09:17.514Z,3.13
2023-05-19T11:11:54.520Z,3.78
2023-05-19T11:14:27.418Z,3.50
2023-05-19T11:16:57.628Z,3.58
2023-05-19T11:19:28.880Z,3.33
2023-05-19T11:21:57.273Z,2.47
2023-05-19T11:24:44.409Z,2.63
2023-05-19T11:27:32.634Z,2.50
2023-05-19T11:30:01.736Z,3.03
2023-05-19T11:32:30.205Z,4.60
2023-05-19T11:34:58.045Z,2.63
2023-05-19T11:37:24.587Z,5.40
2023-05-19T11:39:52.301Z,2.97
2023-05-19T11:42:19.298Z,3.28
2023-05-19T11:44:46.668Z,4.38
2023-05-19T11:49:44.036Z,2.88
2023-05-19T11:52:10.982Z,3.40
2023-05-19T11:54:37.735Z,3.95
2023-05-19T11:57:04.350Z,3.97
2023-05-19T11:59:36.215Z,4.18
2023-05-19T12:02:16.609Z,3.60
2023-05-19T12:04:43.303Z,6.30
2023-05-19T12:07:12.379Z,2.88
2023-05-19T12:09:40.290Z,4.93
2023-05-19T12:12:07.711Z,5.55
2023-05-19T12:14:34.525Z,4.38
2023-05-19T12:17:11.103Z,3.88
2023-05-19T12:19:37.695Z,3.20
2023-05-19T12:22:06.954Z,3.53
2023-05-19T12:24:37.576Z,3.65
2023-05-19T12:27:12.741Z,5.05
2023-05-19T12:29:40.008Z,4.22
2023-05-19T12:32:10.291Z,4.43
2023-05-19T12:34:38.181Z,4.82
2023-05-19T12:37:05.717Z,4.28
2023-05-19T12:39:33.697Z,4.20
2023-05-19T12:42:12.988Z,4.68
2023-05-19T12:44:46.620Z,4.15
2023-05-19T12:47:14.840Z,5.18
2023-05-19T12:50:01.422Z,5.00
2023-05-19T12:52:29.349Z,6.07
2023-05-19T12:55:00.559Z,6.60
2023-05-19T12:57:29.632Z,5.70
2023-05-19T13:00:07.942Z,5.88
2023-05-19T13:02:36.481Z,5.32
2023-05-19T13:05:04.777Z,8.70
2023-05-19T13:07:31.207Z,7.72
2023-05-19T13:09:57.633Z,4.97
2023-05-19T13:12:24.640Z,4.22
2023-05-19T13:14:51.955Z,7.68
2023-05-19T13:17:20.570Z,4.88
2023-05-19T13:19:47.089Z,5.20
2023-05-19T13:22:14.069Z,5.80
2023-05-19T13:24:40.835Z,4.50
2023-05-19T13:27:07.257Z,3.33
2023-05-19T13:29:34.096Z,4.10
2023-05-19T13:32:01.640Z,4.10
2023-05-19T13:34:28.179Z,5.20
2023-05-19T13:36:54.736Z,7.07
2023-05-19T13:39:21.178Z,7.07
2023-05-19T13:41:47.596Z,5.30
2023-05-19T13:44:14.028Z,4.13
2023-05-19T13:46:45.565Z,4.35
2023-05-19T13:49:13.337Z,3.70
2023-05-19T13:51:43.813Z,3.85
2023-05-19T13:54:10.489Z,4.43
2023-05-19T13:56:37.130Z,9.60
2023-05-19T13:59:04.061Z,6.00
2023-05-19T14:01:30.757Z,4.30
2023-05-19T14:03:57.449Z,4.60
2023-05-19T14:06:24.475Z,6.22
2023-05-19T14:08:50.902Z,3.50
2023-05-19T14:11:19.767Z,4.35
2023-05-19T14:13:53.027Z,6.60
2023-05-19T14:16:21.890Z,4.53
2023-05-19T14:18:49.038Z,5.78
2023-05-19T14:21:15.734Z,5.40
2023-05-19T14:23:42.247Z,7.40
2023-05-19T14:26:08.682Z,3.75
2023-05-19T14:28:35.312Z,5.50
2023-05-19T14:31:01.789Z,6.00
2023-05-19T14:33:29.724Z,6.77
2023-05-19T14:36:00.012Z,6.07
2023-05-19T14:38:27.687Z,7.03
2023-05-19T14:40:55.515Z,5.65
2023-05-19T14:43:22.085Z,4.82
2023-05-19T14:45:48.858Z,5.80
2023-05-19T14:48:15.831Z,6.25
2023-05-19T14:50:42.319Z,8.35
2023-05-19T14:53:08.797Z,5.32
2023-05-19T14:55:35.348Z,8.40
2023-05-19T14:58:01.981Z,5.67
2023-05-19T15:00:29.872Z,4.80
2023-05-19T15:02:56.577Z,6.07
2023-05-19T15:05:24.219Z,6.50
2023-05-19T15:07:51.029Z,6.05
2023-05-19T15:10:20.323Z,8.15
2023-05-19T15:12:46.935Z,6.05
2023-05-19T15:15:14.108Z,8.00
2023-05-19T15:17:40.628Z,6.05
2023-05-19T15:20:07.525Z,5.60
2023-05-19T15:22:34.519Z,6.10
2023-05-19T15:25:01.090Z,4.90
2023-05-19T15:27:27.603Z,5.47
2023-05-19T15:29:54.068Z,8.10
2023-05-19T15:32:20.670Z,6.82
2023-05-19T15:34:47.273Z,5.45
2023-05-19T15:37:13.681Z,7.50
2023-05-19T15:39:40.404Z,4.30
2023-05-19T15:42:06.782Z,7.03
2023-05-19T15:44:33.263Z,6.60
2023-05-19T15:46:59.916Z,5.00
2023-05-19T15:49:26.354Z,6.07
2023-05-19T15:51:52.783Z,5.97
2023-05-19T15:54:19.190Z,6.75
2023-05-19T15:56:45.721Z,6.13
2023-05-19T15:59:12.137Z,7.70
2023-05-19T16:01:38.760Z,8.00
2023-05-19T16:04:05.513Z,5.27
2023-05-19T16:06:32.195Z,6.47
2023-05-19T16:08:58.598Z,8.02
2023-05-19T16:11:25.014Z,6.78
2023-05-19T16:13:51.463Z,7.35
2023-05-19T16:16:18.805Z,8.30
2023-05-19T16:18:45.538Z,13.32
2023-05-19T16:21:11.986Z,7.70
2023-05-19T16:23:38.526Z,6.78
2023-05-19T16:26:05.046Z,5.83
2023-05-19T16:28:32.436Z,7.13
2023-05-19T16:30:59.940Z,6.35
2023-05-19T16:35:53.313Z,6.43
2023-05-19T16:38:19.822Z,5.70
2023-05-19T16:40:46.278Z,8.02
2023-05-19T16:43:12.717Z,6.25
2023-05-19T16:45:39.729Z,4.75
2023-05-19T16:48:06.347Z,6.28
2023-05-19T16:50:32.986Z,5.97
2023-05-19T16:52:59.482Z,5.75
2023-05-19T16:55:26.986Z,7.85
2023-05-19T17:00:20.050Z,5.68
2023-05-19T17:02:46.565Z,6.17
2023-05-19T17:05:13.178Z,6.70
2023-05-19T17:07:39.615Z,5.93
2023-05-19T17:10:06.435Z,6.68
2023-05-19T17:12:32.882Z,5.57
2023-05-19T17:14:59.303Z,7.30
2023-05-19T17:17:25.953Z,6.88
2023-05-19T17:19:52.613Z,6.00
2023-05-19T17:22:19.248Z,12.30
2023-05-19T17:24:45.824Z,5.80
2023-05-19T17:27:12.243Z,7.23
2023-05-19T17:29:38.781Z,6.57
2023-05-19T17:32:05.303Z,6.10
2023-05-19T17:34:32.265Z,6.28
2023-05-19T17:36:59.611Z,5.60
2023-05-19T17:39:26.102Z,7.03
2023-05-19T17:41:52.592Z,6.72
2023-05-19T17:44:19.128Z,8.30
2023-05-19T17:46:45.749Z,8.68
2023-05-19T17:49:13.137Z,8.10
2023-05-19T17:51:39.758Z,7.57
2023-05-19T17:54:06.675Z,8.50
2023-05-19T17:56:34.293Z,8.85
2023-05-19T17:59:01.356Z,7.20
2023-05-19T18:01:28.062Z,7.60
2023-05-19T18:03:54.922Z,8.45
2023-05-19T18:06:22.410Z,9.82
2023-05-19T18:08:51.378Z,7.85
2023-05-19T18:11:18.663Z,8.55
2023-05-19T18:13:45.130Z,10.65
2023-05-19T18:16:12.268Z,8.80
2023-05-19T18:18:41.148Z,9.88
2023-05-19T18:21:07.729Z,9.15
2023-05-19T18:23:34.182Z,7.85
2023-05-19T18:26:00.767Z,9.65
2023-05-19T18:28:27.265Z,9.57
2023-05-19T18:31:01.251Z,8.57
2023-05-19T18:33:30.113Z,13.13
2023-05-19T18:35:58.213Z,10.98
2023-05-19T18:38:24.839Z,12.98
2023-05-19T18:40:51.859Z,15.90
2023-05-19T18:43:18.771Z,11.90
2023-05-19T18:45:48.491Z,13.20
2023-05-19T18:48:15.561Z,12.93
2023-05-19T18:50:44.519Z,14.75
2023-05-19T18:53:11.858Z,13.65
2023-05-19T18:55:38.689Z,14.75
2023-05-19T18:58:06.150Z,15.77
2023-05-19T19:03:00.093Z,17.27
2023-05-19T19:05:26.631Z,14.95
2023-05-19T19:07:53.373Z,15.98
2023-05-19T19:10:19.996Z,19.45
2023-05-19T19:12:46.653Z,13.90
2023-05-19T19:15:14.085Z,16.27
2023-05-19T19:17:41.224Z,16.20
2023-05-19T19:20:08.711Z,16.52
2023-05-19T19:25:01.687Z,17.97
2023-05-19T19:27:31.096Z,19.05
2023-05-19T19:30:01.418Z,16.58
2023-05-19T19:32:27.961Z,16.27
2023-05-19T19:34:54.521Z,15.50
2023-05-19T19:37:20.995Z,18.27
2023-05-19T19:39:47.547Z,17.23
2023-05-19T19:42:14.113Z,16.13
2023-05-19T19:44:40.771Z,15.70
2023-05-19T19:47:07.678Z,19.27
2023-05-19T19:49:34.168Z,18.42
2023-05-19T19:52:00.846Z,20.02
2023-05-19T19:54:27.497Z,20.63
2023-05-19T19:56:53.982Z,18.60
2023-05-19T19:59:20.627Z,20.88
